Time;durP1;ratioP1;P1;durP2;ratioP2;P2;SDS_P1;SDS_P2;PMS_P1;PMS_P2;Temp;Humidity;BMP_temperature;BMP_pressure;BME280_temperature;BME280_humidity;BME280_pressure;Samples;Min_cycle;Max_cycle;Signal;HPM_P1;HPM_P2
2023/06/14 00:02:19;;;;;;;0.10;0.10;;;;;;;;;;5089589;28;20036;-48
2023/06/14 00:04:45;;;;;;;0.10;0.10;;;;;;;;;;5097686;28;20047;-49
2023/06/14 00:07:13;;;;;;;0.10;0.10;;;;;;;;;;5113610;28;20051;-48
2023/06/14 00:09:40;;;;;;;0.20;0.20;;;;;;;;;;5109733;28;20467;-48
2023/06/14 00:12:06;;;;;;;0.10;0.10;;;;;;;;;;5093805;28;20057;-49
2023/06/14 00:14:32;;;;;;;0.10;0.10;;;;;;;;;;5092591;28;20113;-49
2023/06/14 00:16:58;;;;;;;0.10;0.10;;;;;;;;;;5093286;28;20047;-51
2023/06/14 00:19:24;;;;;;;0.10;0.10;;;;;;;;;;5093188;28;20249;-49
2023/06/14 00:21:51;;;;;;;0.10;0.10;;;;;;;;;;5075078;28;20328;-49
2023/06/14 00:24:17;;;;;;;0.10;0.10;;;;;;;;;;5093558;28;20051;-49
2023/06/14 00:26:43;;;;;;;0.20;0.20;;;;;;;;;;5100053;28;20092;-52
2023/06/14 00:29:08;;;;;;;0.10;0.10;;;;;;;;;;5113728;28;20127;-51
2023/06/14 00:31:34;;;;;;;0.10;0.10;;;;;;;;;;5093678;28;20411;-50
2023/06/14 00:34:00;;;;;;;0.13;0.13;;;;;;;;;;5093407;28;20101;-48
2023/06/14 00:36:25;;;;;;;0.10;0.10;;;;;;;;;;5093105;28;20126;-50
2023/06/14 00:38:51;;;;;;;0.20;0.20;;;;;;;;;;5092451;28;20133;-49
2023/06/14 00:41:16;;;;;;;0.10;0.10;;;;;;;;;;5092940;28;20151;-51
2023/06/14 00:43:42;;;;;;;0.10;0.10;;;;;;;;;;5093057;28;20040;-48
2023/06/14 00:46:07;;;;;;;0.10;0.10;;;;;;;;;;5095906;28;20441;-50
2023/06/14 00:48:34;;;;;;;0.20;0.20;;;;;;;;;;5092708;28;20340;-49
2023/06/14 00:51:03;;;;;;;0.10;0.10;;;;;;;;;;5092609;28;20101;-50
2023/06/14 00:53:29;;;;;;;0.10;0.10;;;;;;;;;;5093648;28;20451;-49
2023/06/14 00:55:55;;;;;;;0.20;0.20;;;;;;;;;;5074464;28;20132;-49
2023/06/14 00:58:21;;;;;;;0.10;0.10;;;;;;;;;;5092687;28;20105;-51
2023/06/14 01:00:47;;;;;;;0.10;0.10;;;;;;;;;;5091961;28;20412;-49
2023/06/14 01:03:14;;;;;;;0.10;0.10;;;;;;;;;;5103253;28;20043;-49
2023/06/14 01:05:40;;;;;;;0.20;0.20;;;;;;;;;;5113230;28;20047;-49
2023/06/14 01:08:13;;;;;;;0.10;0.10;;;;;;;;;;5101107;28;20078;-48
2023/06/14 01:10:42;;;;;;;0.10;0.10;;;;;;;;;;5091841;28;20186;-49
2023/06/14 01:13:15;;;;;;;0.10;0.10;;;;;;;;;;5094248;28;20054;-48
2023/06/14 01:15:42;;;;;;;0.10;0.10;;;;;;;;;;5095840;28;20263;-48
2023/06/14 01:18:08;;;;;;;0.20;0.20;;;;;;;;;;5076299;28;20040;-48
2023/06/14 01:20:37;;;;;;;0.15;0.15;;;;;;;;;;5095148;28;20079;-51
2023/06/14 01:23:03;;;;;;;0.10;0.10;;;;;;;;;;5095655;28;20040;-48
2023/06/14 01:25:29;;;;;;;0.10;0.10;;;;;;;;;;5095515;28;20070;-47
2023/06/14 01:27:58;;;;;;;0.10;0.10;;;;;;;;;;5094948;28;20309;-48
2023/06/14 01:30:25;;;;;;;0.10;0.10;;;;;;;;;;5095144;28;20043;-53
2023/06/14 01:32:51;;;;;;;0.10;0.10;;;;;;;;;;5095450;28;20480;-49
2023/06/14 01:35:17;;;;;;;0.10;0.10;;;;;;;;;;5095126;28;20051;-48
2023/06/14 01:37:43;;;;;;;0.10;0.10;;;;;;;;;;5076807;28;20385;-51
2023/06/14 01:40:10;;;;;;;0.20;0.20;;;;;;;;;;5095401;28;20043;-48
2023/06/14 01:42:37;;;;;;;0.20;0.20;;;;;;;;;;5096198;28;20040;-49
2023/06/14 01:45:05;;;;;;;0.10;0.10;;;;;;;;;;5077570;28;20408;-48
2023/06/14 01:47:30;;;;;;;0.10;0.10;;;;;;;;;;5082112;28;20055;-48
2023/06/14 01:49:56;;;;;;;0.10;0.10;;;;;;;;;;5095555;28;20048;-49
2023/06/14 01:52:24;;;;;;;0.20;0.20;;;;;;;;;;5095432;28;20051;-50
2023/06/14 01:54:50;;;;;;;0.10;0.10;;;;;;;;;;5095476;28;20093;-50
2023/06/14 01:57:15;;;;;;;0.10;0.10;;;;;;;;;;5077453;28;20047;-50
2023/06/14 01:59:41;;;;;;;0.10;0.10;;;;;;;;;;5094919;28;20040;-48
2023/06/14 02:02:07;;;;;;;0.13;0.13;;;;;;;;;;5086674;28;20051;-51
2023/06/14 02:04:32;;;;;;;0.10;0.10;;;;;;;;;;5097590;28;20119;-51
2023/06/14 02:06:58;;;;;;;0.20;0.20;;;;;;;;;;5116431;28;20793;-50
2023/06/14 02:09:23;;;;;;;0.20;0.20;;;;;;;;;;5115252;28;20918;-49
2023/06/14 02:11:49;;;;;;;0.10;0.10;;;;;;;;;;5077030;28;20569;-50
2023/06/14 02:14:16;;;;;;;0.10;0.10;;;;;;;;;;5076725;28;20561;-49
2023/06/14 02:16:48;;;;;;;0.20;0.20;;;;;;;;;;5095611;28;20240;-48
2023/06/14 02:19:15;;;;;;;0.17;0.17;;;;;;;;;;5078375;28;20044;-48
2023/06/14 02:21:41;;;;;;;0.10;0.10;;;;;;;;;;5095124;28;20324;-49
2023/06/14 02:24:07;;;;;;;0.10;0.10;;;;;;;;;;5094200;28;20393;-52
2023/06/14 02:26:32;;;;;;;0.10;0.10;;;;;;;;;;5095074;28;20247;-49
2023/06/14 02:28:58;;;;;;;0.10;0.10;;;;;;;;;;5095042;28;20047;-48
2023/06/14 02:31:24;;;;;;;0.10;0.10;;;;;;;;;;5094869;28;20070;-50
2023/06/14 02:33:49;;;;;;;0.10;0.10;;;;;;;;;;5095730;28;20058;-50
2023/06/14 02:36:15;;;;;;;0.20;0.20;;;;;;;;;;5095295;28;20423;-50
2023/06/14 02:38:41;;;;;;;0.10;0.10;;;;;;;;;;5095294;28;20108;-50
2023/06/14 02:41:06;;;;;;;0.10;0.10;;;;;;;;;;5094398;28;20051;-49
2023/06/14 02:43:32;;;;;;;0.10;0.10;;;;;;;;;;5095077;28;20539;-48
2023/06/14 02:45:57;;;;;;;0.10;0.10;;;;;;;;;;5094995;28;20342;-50
2023/06/14 02:48:23;;;;;;;0.10;0.10;;;;;;;;;;5094246;28;20480;-47
2023/06/14 02:50:48;;;;;;;0.10;0.10;;;;;;;;;;5096363;28;20497;-50
2023/06/14 02:53:14;;;;;;;0.10;0.10;;;;;;;;;;5095130;28;20475;-47
2023/06/14 02:55:40;;;;;;;0.10;0.10;;;;;;;;;;5094587;28;20130;-48
2023/06/14 02:58:05;;;;;;;0.20;0.20;;;;;;;;;;5094711;28;20454;-49
2023/06/14 03:00:31;;;;;;;0.17;0.17;;;;;;;;;;5078593;28;20100;-49
2023/06/14 03:02:57;;;;;;;0.10;0.10;;;;;;;;;;5113792;28;20135;-48
2023/06/14 03:05:23;;;;;;;0.10;0.10;;;;;;;;;;5115109;28;20426;-48
2023/06/14 03:07:50;;;;;;;0.17;0.17;;;;;;;;;;5114087;28;20043;-48
2023/06/14 03:10:15;;;;;;;0.20;0.20;;;;;;;;;;5108007;28;20052;-48
2023/06/14 03:12:41;;;;;;;0.10;0.10;;;;;;;;;;5076355;28;20523;-48
2023/06/14 03:15:08;;;;;;;0.10;0.10;;;;;;;;;;5093744;28;20100;-47
2023/06/14 03:17:35;;;;;;;0.10;0.10;;;;;;;;;;5094285;28;20047;-49
2023/06/14 03:20:01;;;;;;;0.10;0.10;;;;;;;;;;5093867;28;20138;-48
2023/06/14 03:22:26;;;;;;;0.10;0.10;;;;;;;;;;5094202;28;20035;-48
2023/06/14 03:24:53;;;;;;;0.20;0.20;;;;;;;;;;5094402;28;20047;-51
2023/06/14 03:27:19;;;;;;;0.10;0.10;;;;;;;;;;5094180;28;20051;-48
2023/06/14 03:29:45;;;;;;;0.10;0.10;;;;;;;;;;5093956;28;20109;-48
2023/06/14 03:32:10;;;;;;;0.15;0.15;;;;;;;;;;5094165;28;20047;-48
2023/06/14 03:34:38;;;;;;;0.20;0.20;;;;;;;;;;5093933;28;20074;-48
2023/06/14 03:37:03;;;;;;;0.10;0.10;;;;;;;;;;5094102;28;20055;-49
2023/06/14 03:39:29;;;;;;;0.10;0.10;;;;;;;;;;5094078;28;20051;-48
2023/06/14 03:41:54;;;;;;;0.10;0.10;;;;;;;;;;5094601;28;20050;-49
2023/06/14 03:44:20;;;;;;;0.20;0.20;;;;;;;;;;5093761;28;20046;-49
2023/06/14 03:46:46;;;;;;;0.20;0.20;;;;;;;;;;5093975;28;20050;-49
2023/06/14 03:49:12;;;;;;;0.15;0.15;;;;;;;;;;5075225;28;20040;-48
2023/06/14 03:51:39;;;;;;;0.10;0.10;;;;;;;;;;5097393;28;20043;-48
2023/06/14 03:54:05;;;;;;;0.10;0.10;;;;;;;;;;5114356;28;20239;-50
2023/06/14 03:56:50;;;;;;;0.10;0.10;;;;;;;;;;5099159;28;20047;-48
2023/06/14 03:59:16;;;;;;;0.10;0.10;;;;;;;;;;5114282;28;20108;-50
2023/06/14 04:01:44;;;;;;;0.10;0.10;;;;;;;;;;5098385;28;20470;-49
2023/06/14 04:04:10;;;;;;;0.10;0.10;;;;;;;;;;5093020;28;20109;-48
2023/06/14 04:06:35;;;;;;;0.20;0.20;;;;;;;;;;5078722;28;20130;-47
2023/06/14 04:09:02;;;;;;;0.10;0.10;;;;;;;;;;5072948;28;20055;-49
2023/06/14 04:11:28;;;;;;;0.10;0.10;;;;;;;;;;5090132;28;20082;-49
2023/06/14 04:13:56;;;;;;;0.10;0.10;;;;;;;;;;5093614;28;20040;-48
2023/06/14 04:16:21;;;;;;;0.10;0.10;;;;;;;;;;5093769;28;20048;-50
2023/06/14 04:18:48;;;;;;;0.10;0.10;;;;;;;;;;5093209;28;20046;-49
2023/06/14 04:21:13;;;;;;;0.10;0.10;;;;;;;;;;5093045;28;20098;-48
2023/06/14 04:23:44;;;;;;;0.10;0.10;;;;;;;;;;5093290;28;20428;-47
2023/06/14 04:26:10;;;;;;;0.10;0.10;;;;;;;;;;5093676;28;20053;-50
2023/06/14 04:28:40;;;;;;;0.20;0.20;;;;;;;;;;5093162;28;20051;-48
2023/06/14 04:31:08;;;;;;;0.20;0.20;;;;;;;;;;5093607;28;20397;-51
2023/06/14 04:33:42;;;;;;;0.20;0.20;;;;;;;;;;5094155;28;20446;-48
2023/06/14 04:36:09;;;;;;;0.10;0.10;;;;;;;;;;5093134;28;20122;-48
2023/06/14 04:38:35;;;;;;;0.20;0.20;;;;;;;;;;5092457;28;20047;-47
2023/06/14 04:41:01;;;;;;;0.17;0.17;;;;;;;;;;5093033;28;20557;-48
2023/06/14 04:43:27;;;;;;;0.20;0.20;;;;;;;;;;5092830;28;20055;-49
2023/06/14 04:45:54;;;;;;;0.20;0.20;;;;;;;;;;5074549;28;20048;-47
2023/06/14 04:48:20;;;;;;;0.20;0.20;;;;;;;;;;5094612;28;20049;-48
2023/06/14 04:50:46;;;;;;;0.10;0.10;;;;;;;;;;5095664;28;20051;-49
2023/06/14 04:53:12;;;;;;;0.10;0.10;;;;;;;;;;5096738;28;20108;-48
2023/06/14 04:55:38;;;;;;;0.20;0.20;;;;;;;;;;5095848;28;20051;-48
2023/06/14 04:58:04;;;;;;;0.10;0.10;;;;;;;;;;5095804;28;20108;-48
2023/06/14 05:00:30;;;;;;;0.10;0.10;;;;;;;;;;5093999;28;20070;-47
2023/06/14 05:02:56;;;;;;;0.10;0.10;;;;;;;;;;5095799;28;20054;-47
2023/06/14 05:05:22;;;;;;;0.10;0.10;;;;;;;;;;5095985;28;20079;-48
2023/06/14 05:07:48;;;;;;;0.10;0.10;;;;;;;;;;5093193;28;20134;-48
2023/06/14 05:10:13;;;;;;;0.10;0.10;;;;;;;;;;5082222;28;20075;-50
2023/06/14 05:12:39;;;;;;;0.10;0.10;;;;;;;;;;5094009;28;20043;-47
2023/06/14 05:15:05;;;;;;;0.10;0.10;;;;;;;;;;5095693;28;20039;-48
2023/06/14 05:17:30;;;;;;;0.10;0.10;;;;;;;;;;5096031;28;20062;-50
2023/06/14 05:19:56;;;;;;;0.10;0.10;;;;;;;;;;5095846;28;20543;-47
2023/06/14 05:22:22;;;;;;;0.30;0.30;;;;;;;;;;5087550;28;20370;-48
2023/06/14 05:24:48;;;;;;;0.20;0.20;;;;;;;;;;5057365;28;20454;-47
2023/06/14 05:27:13;;;;;;;0.10;0.10;;;;;;;;;;5073958;28;20051;-48
2023/06/14 05:29:40;;;;;;;0.10;0.10;;;;;;;;;;5076599;28;20040;-47
2023/06/14 05:32:05;;;;;;;0.10;0.10;;;;;;;;;;5095383;28;20309;-47
2023/06/14 05:34:31;;;;;;;0.10;0.10;;;;;;;;;;5076093;28;20427;-47
2023/06/14 05:36:56;;;;;;;0.20;0.20;;;;;;;;;;5113571;28;20055;-49
2023/06/14 05:39:23;;;;;;;0.10;0.10;;;;;;;;;;5115584;28;20039;-48
2023/06/14 05:41:49;;;;;;;0.10;0.10;;;;;;;;;;5094745;28;20308;-48
2023/06/14 05:44:16;;;;;;;0.10;0.10;;;;;;;;;;5094865;28;20051;-48
2023/06/14 05:46:41;;;;;;;0.10;0.10;;;;;;;;;;5094158;28;20050;-48
2023/06/14 05:49:07;;;;;;;0.10;0.10;;;;;;;;;;5094197;28;20040;-47
2023/06/14 05:51:33;;;;;;;0.10;0.10;;;;;;;;;;5093745;28;20096;-49
2023/06/14 05:53:59;;;;;;;0.10;0.10;;;;;;;;;;5074170;28;20315;-50
2023/06/14 05:56:25;;;;;;;0.10;0.10;;;;;;;;;;5086678;28;20259;-48
2023/06/14 05:58:51;;;;;;;0.20;0.20;;;;;;;;;;5071684;28;20478;-51
2023/06/14 06:01:17;;;;;;;0.20;0.20;;;;;;;;;;5073745;28;20664;-50
2023/06/14 06:03:45;;;;;;;0.10;0.10;;;;;;;;;;5068714;28;20079;-49
2023/06/14 06:06:11;;;;;;;0.10;0.10;;;;;;;;;;5075801;28;20039;-50
2023/06/14 06:08:37;;;;;;;0.10;0.10;;;;;;;;;;5097046;28;20043;-48
2023/06/14 06:11:02;;;;;;;0.10;0.10;;;;;;;;;;5075908;28;20216;-47
2023/06/14 06:13:28;;;;;;;0.17;0.17;;;;;;;;;;5073506;28;20039;-51
2023/06/14 06:15:53;;;;;;;0.10;0.10;;;;;;;;;;5084252;28;20112;-48
2023/06/14 06:18:19;;;;;;;0.10;0.10;;;;;;;;;;5076919;28;20048;-50
2023/06/14 06:20:46;;;;;;;0.10;0.10;;;;;;;;;;5079433;28;20035;-47
2023/06/14 06:23:12;;;;;;;0.10;0.10;;;;;;;;;;5095352;28;20075;-48
2023/06/14 06:25:37;;;;;;;0.10;0.10;;;;;;;;;;5088017;28;20436;-48
2023/06/14 06:28:03;;;;;;;0.10;0.10;;;;;;;;;;5073155;28;20149;-48
2023/06/14 06:30:29;;;;;;;0.10;0.10;;;;;;;;;;5080598;28;20044;-48
2023/06/14 06:32:55;;;;;;;0.45;0.38;;;;;;;;;;5077145;28;20040;-49
2023/06/14 06:35:21;;;;;;;0.10;0.10;;;;;;;;;;5085079;28;20055;-48
2023/06/14 06:37:46;;;;;;;0.13;0.13;;;;;;;;;;5079721;28;20032;-48
2023/06/14 06:40:12;;;;;;;0.10;0.10;;;;;;;;;;5077977;28;20186;-52
2023/06/14 06:42:38;;;;;;;0.10;0.10;;;;;;;;;;5088262;28;20047;-48
2023/06/14 06:45:04;;;;;;;0.15;0.15;;;;;;;;;;5088174;28;20051;-50
2023/06/14 06:47:29;;;;;;;0.10;0.10;;;;;;;;;;5076058;28;20044;-50
2023/06/14 06:49:55;;;;;;;0.10;0.10;;;;;;;;;;5082037;28;20180;-59
2023/06/14 06:52:21;;;;;;;0.20;0.20;;;;;;;;;;5061712;28;20210;-58
2023/06/14 06:54:46;;;;;;;0.17;0.17;;;;;;;;;;5062817;28;20051;-56
2023/06/14 06:57:12;;;;;;;0.10;0.10;;;;;;;;;;5077731;28;20051;-56
2023/06/14 06:59:37;;;;;;;0.20;0.20;;;;;;;;;;5072857;28;20697;-56
2023/06/14 07:02:03;;;;;;;0.20;0.20;;;;;;;;;;5065184;28;20655;-55
2023/06/14 07:04:29;;;;;;;0.10;0.10;;;;;;;;;;5053123;28;20557;-56
2023/06/14 07:06:55;;;;;;;0.10;0.10;;;;;;;;;;5047527;28;20439;-54
2023/06/14 07:09:20;;;;;;;0.10;0.10;;;;;;;;;;5064145;28;20467;-56
2023/06/14 07:11:46;;;;;;;0.10;0.10;;;;;;;;;;5073735;28;20610;-62
2023/06/14 07:14:12;;;;;;;0.10;0.10;;;;;;;;;;5079127;28;20066;-55
2023/06/14 07:16:38;;;;;;;0.20;0.20;;;;;;;;;;5078664;28;20489;-54
2023/06/14 07:19:04;;;;;;;0.10;0.10;;;;;;;;;;5080198;28;20039;-55
2023/06/14 07:21:30;;;;;;;0.10;0.10;;;;;;;;;;5080471;28;20550;-54
2023/06/14 07:23:56;;;;;;;0.10;0.10;;;;;;;;;;5073579;28;20044;-56
2023/06/14 07:26:22;;;;;;;0.17;0.17;;;;;;;;;;5081005;28;20051;-54
2023/06/14 07:28:48;;;;;;;0.10;0.10;;;;;;;;;;5089814;28;20155;-56
2023/06/14 07:31:15;;;;;;;0.10;0.10;;;;;;;;;;5091717;28;20050;-55
2023/06/14 07:33:41;;;;;;;0.20;0.20;;;;;;;;;;5069999;28;20101;-55
2023/06/14 07:36:07;;;;;;;0.10;0.10;;;;;;;;;;5065653;28;20048;-55
2023/06/14 07:38:33;;;;;;;0.10;0.10;;;;;;;;;;5067154;28;20238;-56
2023/06/14 07:40:59;;;;;;;0.10;0.10;;;;;;;;;;5085573;28;20143;-55
2023/06/14 07:43:24;;;;;;;0.20;0.20;;;;;;;;;;5060494;28;20036;-54
2023/06/14 07:45:50;;;;;;;0.10;0.10;;;;;;;;;;5087608;28;20054;-52
2023/06/14 07:48:31;;;;;;;0.20;0.20;;;;;;;;;;5081932;28;20040;-48
2023/06/14 07:50:57;;;;;;;0.10;0.10;;;;;;;;;;5080979;28;20143;-49
2023/06/14 07:53:23;;;;;;;0.15;0.15;;;;;;;;;;5085874;28;20100;-49
2023/06/14 07:55:48;;;;;;;0.10;0.10;;;;;;;;;;5068027;28;20400;-50
2023/06/14 07:58:19;;;;;;;0.10;0.10;;;;;;;;;;5085250;28;20039;-49
2023/06/14 08:00:46;;;;;;;0.10;0.10;;;;;;;;;;5084268;28;20055;-49
2023/06/14 08:03:11;;;;;;;0.10;0.10;;;;;;;;;;5080915;28;20054;-49
2023/06/14 08:05:37;;;;;;;0.10;0.10;;;;;;;;;;5078639;28;20282;-48
2023/06/14 08:08:03;;;;;;;0.10;0.10;;;;;;;;;;5078632;28;20040;-49
2023/06/14 08:10:28;;;;;;;0.10;0.10;;;;;;;;;;5070712;28;20201;-51
2023/06/14 08:12:54;;;;;;;0.10;0.10;;;;;;;;;;5077498;28;20165;-48
2023/06/14 08:15:20;;;;;;;0.10;0.10;;;;;;;;;;5064916;28;20671;-48
2023/06/14 08:17:46;;;;;;;0.20;0.20;;;;;;;;;;5079528;28;20092;-48
2023/06/14 08:20:13;;;;;;;0.10;0.10;;;;;;;;;;5091061;28;20178;-49
2023/06/14 08:22:40;;;;;;;0.10;0.10;;;;;;;;;;5081618;28;20043;-50
2023/06/14 08:25:06;;;;;;;0.10;0.10;;;;;;;;;;5073971;28;20047;-52
2023/06/14 08:27:32;;;;;;;0.20;0.20;;;;;;;;;;5075163;28;20049;-50
2023/06/14 08:29:58;;;;;;;0.10;0.10;;;;;;;;;;5069455;28;20267;-49
2023/06/14 08:32:23;;;;;;;0.10;0.10;;;;;;;;;;5077240;28;20287;-49
2023/06/14 08:34:49;;;;;;;0.10;0.10;;;;;;;;;;5075395;28;20146;-52
2023/06/14 08:37:29;;;;;;;0.17;0.17;;;;;;;;;;5081617;28;20539;-51
2023/06/14 08:39:56;;;;;;;0.10;0.10;;;;;;;;;;5075037;28;20048;-51
2023/06/14 08:42:23;;;;;;;0.10;0.10;;;;;;;;;;5077760;28;20058;-50
2023/06/14 08:44:57;;;;;;;0.20;0.20;;;;;;;;;;5076571;28;20074;-52
2023/06/14 08:47:25;;;;;;;0.10;0.10;;;;;;;;;;5079223;28;20075;-50
2023/06/14 08:49:52;;;;;;;0.10;0.10;;;;;;;;;;5082626;28;20484;-49
2023/06/14 08:52:19;;;;;;;0.10;0.10;;;;;;;;;;5075171;28;20341;-50
2023/06/14 08:54:48;;;;;;;0.10;0.10;;;;;;;;;;5052761;28;20038;-49
2023/06/14 08:57:15;;;;;;;0.10;0.10;;;;;;;;;;5069934;28;20051;-52
2023/06/14 08:59:49;;;;;;;0.17;0.17;;;;;;;;;;5092811;28;20296;-51
2023/06/14 09:02:17;;;;;;;0.20;0.20;;;;;;;;;;5106546;28;20344;-49
2023/06/14 09:04:44;;;;;;;0.10;0.10;;;;;;;;;;5091195;28;20043;-49
2023/06/14 09:07:10;;;;;;;0.10;0.10;;;;;;;;;;5090414;28;20510;-50
2023/06/14 09:09:38;;;;;;;0.10;0.10;;;;;;;;;;5090700;28;20608;-52
2023/06/14 09:12:04;;;;;;;;;;;;;;;;;;5099024;28;20148;-51
2023/06/14 09:14:29;;;;;;;0.20;0.20;;;;;;;;;;5083372;28;19925;-49
2023/06/14 09:16:55;;;;;;;0.10;0.10;;;;;;;;;;5102831;28;20128;-49
2023/06/14 09:19:22;;;;;;;0.10;0.10;;;;;;;;;;5087943;28;20227;-50
2023/06/14 09:21:48;;;;;;;0.10;0.10;;;;;;;;;;5072783;28;20556;-48
2023/06/14 09:24:14;;;;;;;0.10;0.10;;;;;;;;;;5073636;28;20043;-49
2023/06/14 09:26:40;;;;;;;0.10;0.10;;;;;;;;;;5073962;28;20050;-51
2023/06/14 09:29:06;;;;;;;0.10;0.10;;;;;;;;;;5088268;28;20052;-49
2023/06/14 09:31:32;;;;;;;0.20;0.20;;;;;;;;;;5090035;28;20035;-48
2023/06/14 09:34:01;;;;;;;0.17;0.17;;;;;;;;;;5094955;28;20105;-49
2023/06/14 09:36:27;;;;;;;0.10;0.10;;;;;;;;;;5060028;28;20058;-49
2023/06/14 09:38:54;;;;;;;0.10;0.10;;;;;;;;;;5078089;28;20052;-52
2023/06/14 09:41:19;;;;;;;0.10;0.10;;;;;;;;;;5076429;28;20058;-48
2023/06/14 09:43:46;;;;;;;0.10;0.10;;;;;;;;;;5079235;28;20051;-51
2023/06/14 09:46:13;;;;;;;0.10;0.10;;;;;;;;;;5068440;28;20428;-50
2023/06/14 09:48:42;;;;;;;0.10;0.10;;;;;;;;;;5079695;28;20040;-52
2023/06/14 09:51:10;;;;;;;0.10;0.10;;;;;;;;;;5088694;28;20055;-48
2023/06/14 09:53:36;;;;;;;0.10;0.10;;;;;;;;;;5079422;28;20100;-49
2023/06/14 09:56:02;;;;;;;0.10;0.10;;;;;;;;;;5087144;28;20100;-51
2023/06/14 09:58:28;;;;;;;0.20;0.20;;;;;;;;;;5080445;28;20039;-49
2023/06/14 10:00:54;;;;;;;0.10;0.10;;;;;;;;;;5079659;28;20147;-51
2023/06/14 10:03:23;;;;;;;0.10;0.10;;;;;;;;;;5083485;28;20043;-51
2023/06/14 10:05:50;;;;;;;0.10;0.10;;;;;;;;;;5063228;28;20130;-49
2023/06/14 10:08:16;;;;;;;0.10;0.10;;;;;;;;;;5084766;28;20044;-49
2023/06/14 10:10:42;;;;;;;0.10;0.10;;;;;;;;;;5077868;28;20126;-50
2023/06/14 10:13:08;;;;;;;0.10;0.10;;;;;;;;;;5091142;28;20100;-51
2023/06/14 10:15:46;;;;;;;0.20;0.20;;;;;;;;;;5092261;28;20105;-51
2023/06/14 10:18:14;;;;;;;;;;;;;;;;;;5089928;28;20079;-48
2023/06/14 10:20:40;;;;;;;;;;;;;;;;;;5092854;28;19924;-51
2023/06/14 10:23:08;;;;;;;0.10;0.10;;;;;;;;;;5089382;28;20375;-50
2023/06/14 10:25:34;;;;;;;0.10;0.10;;;;;;;;;;5092325;28;21442;-57
2023/06/14 10:28:22;;;;;;;0.10;0.10;;;;;;;;;;5079929;28;20489;-48
2023/06/14 10:33:49;;;;;;;0.10;0.10;;;;;;;;;;5169600;27;20613;-51
2023/06/14 10:38:58;;;;;;;0.10;0.10;;;;;;;;;;5186831;27;20144;-49
2023/06/14 10:41:25;;;;;;;0.10;0.10;;;;;;;;;;5123964;27;20080;-50
2023/06/14 10:43:51;;;;;;;0.20;0.20;;;;;;;;;;5125448;27;20228;-48
2023/06/14 10:46:17;;;;;;;0.10;0.10;;;;;;;;;;5113862;27;20035;-52
2023/06/14 10:48:44;;;;;;;0.13;0.13;;;;;;;;;;5128159;27;20039;-51
2023/06/14 10:51:29;;;;;;;0.20;0.20;;;;;;;;;;5116009;27;20482;-50
2023/06/14 10:53:55;;;;;;;0.20;0.20;;;;;;;;;;5119114;27;20070;-50
2023/06/14 10:56:36;;;;;;;0.20;0.20;;;;;;;;;;5134820;27;20177;-48
2023/06/14 10:59:02;;;;;;;0.20;0.20;;;;;;;;;;5140307;27;20154;-50
2023/06/14 11:01:32;;;;;;;0.15;0.15;;;;;;;;;;5105049;27;20054;-47
2023/06/14 11:04:06;;;;;;;0.20;0.20;;;;;;;;;;5136052;27;20094;-46
2023/06/14 11:06:44;;;;;;;0.10;0.10;;;;;;;;;;5134799;27;20447;-48
2023/06/14 11:09:20;;;;;;;0.10;0.10;;;;;;;;;;5141686;27;20239;-53
2023/06/14 11:11:45;;;;;;;0.10;0.10;;;;;;;;;;5116741;27;20528;-47
2023/06/14 11:14:11;;;;;;;0.10;0.10;;;;;;;;;;5137987;27;20120;-47
2023/06/14 11:16:37;;;;;;;0.38;0.30;;;;;;;;;;5138724;27;20089;-45
2023/06/14 11:19:04;;;;;;;0.10;0.10;;;;;;;;;;5136435;27;20056;-48
2023/06/14 11:21:31;;;;;;;0.10;0.10;;;;;;;;;;5136115;27;20132;-47
2023/06/14 11:23:57;;;;;;;0.10;0.10;;;;;;;;;;5117387;27;20042;-46
2023/06/14 11:26:26;;;;;;;0.10;0.10;;;;;;;;;;5119162;27;20232;-45
2023/06/14 11:28:54;;;;;;;0.10;0.10;;;;;;;;;;5100565;27;20074;-48
2023/06/14 11:31:20;;;;;;;0.35;0.28;;;;;;;;;;5116510;27;20039;-46
2023/06/14 11:33:49;;;;;;;0.10;0.10;;;;;;;;;;5111149;27;21493;-45
2023/06/14 11:36:15;;;;;;;0.10;0.10;;;;;;;;;;5111178;27;20067;-47
2023/06/14 11:38:40;;;;;;;0.10;0.10;;;;;;;;;;5100591;27;20085;-47
2023/06/14 11:41:06;;;;;;;0.10;0.10;;;;;;;;;;5117222;27;20419;-46
2023/06/14 11:43:33;;;;;;;0.10;0.10;;;;;;;;;;5113704;27;20046;-45
2023/06/14 11:45:59;;;;;;;0.10;0.10;;;;;;;;;;5119743;27;20495;-46
2023/06/14 11:48:37;;;;;;;0.10;0.10;;;;;;;;;;5107832;27;20512;-46
2023/06/14 11:51:03;;;;;;;0.10;0.10;;;;;;;;;;5111120;27;20043;-46
2023/06/14 11:53:28;;;;;;;0.20;0.20;;;;;;;;;;5099978;27;20074;-45
2023/06/14 11:55:54;;;;;;;0.20;0.20;;;;;;;;;;5111839;28;20311;-47
2023/06/14 11:58:20;;;;;;;0.10;0.10;;;;;;;;;;5111728;27;20062;-46
2023/06/14 12:00:48;;;;;;;0.10;0.10;;;;;;;;;;5108779;27;20308;-46
2023/06/14 12:03:14;;;;;;;0.10;0.10;;;;;;;;;;5099652;27;20352;-46
2023/06/14 12:05:39;;;;;;;0.20;0.20;;;;;;;;;;5108419;27;20679;-46
2023/06/14 12:08:07;;;;;;;0.17;0.17;;;;;;;;;;5105823;27;20047;-46
2023/06/14 12:10:33;;;;;;;;;;;;;;;;;;5090079;28;20167;-45
2023/06/14 12:12:59;;;;;;;0.10;0.10;;;;;;;;;;5103067;27;20219;-45
2023/06/14 12:15:24;;;;;;;0.10;0.10;;;;;;;;;;5090250;28;20047;-45
2023/06/14 12:17:50;;;;;;;0.10;0.10;;;;;;;;;;5106235;27;20601;-45
2023/06/14 12:20:16;;;;;;;0.10;0.10;;;;;;;;;;5109750;27;20047;-46
2023/06/14 12:22:53;;;;;;;0.10;0.10;;;;;;;;;;5107721;28;20047;-45
2023/06/14 12:25:35;;;;;;;0.20;0.20;;;;;;;;;;5101665;28;20054;-45
2023/06/14 12:28:05;;;;;;;0.10;0.10;;;;;;;;;;5085047;28;20039;-46
2023/06/14 12:30:31;;;;;;;0.10;0.10;;;;;;;;;;5081844;28;20459;-49
2023/06/14 12:32:57;;;;;;;0.10;0.10;;;;;;;;;;5100354;28;20257;-45
2023/06/14 12:35:22;;;;;;;0.10;0.10;;;;;;;;;;5104633;27;20078;-45
2023/06/14 12:37:48;;;;;;;0.10;0.10;;;;;;;;;;5099645;28;20055;-45
2023/06/14 12:40:13;;;;;;;0.20;0.20;;;;;;;;;;5108917;27;20050;-46
2023/06/14 12:42:40;;;;;;;0.10;0.10;;;;;;;;;;5108372;28;20427;-46
2023/06/14 12:45:06;;;;;;;0.10;0.10;;;;;;;;;;5106075;28;20050;-45
2023/06/14 12:47:32;;;;;;;0.10;0.10;;;;;;;;;;5108267;27;20058;-44
2023/06/14 12:49:57;;;;;;;0.10;0.10;;;;;;;;;;5110654;27;20137;-46
2023/06/14 12:52:23;;;;;;;0.10;0.10;;;;;;;;;;5114890;27;20582;-46
2023/06/14 12:54:49;;;;;;;0.10;0.10;;;;;;;;;;5105139;27;20093;-48
2023/06/14 12:57:15;;;;;;;0.10;0.10;;;;;;;;;;5103355;27;20426;-45
2023/06/14 12:59:40;;;;;;;0.10;0.10;;;;;;;;;;5102861;27;20106;-45
2023/06/14 13:02:13;;;;;;;0.10;0.10;;;;;;;;;;5110496;28;20051;-47
2023/06/14 13:04:39;;;;;;;0.10;0.10;;;;;;;;;;5122048;27;20150;-47
2023/06/14 13:07:05;;;;;;;0.20;0.20;;;;;;;;;;5112576;28;20495;-47
2023/06/14 13:09:31;;;;;;;0.10;0.10;;;;;;;;;;5112293;27;20158;-48
2023/06/14 13:11:56;;;;;;;0.10;0.10;;;;;;;;;;5134475;27;20050;-48
2023/06/14 13:14:22;;;;;;;0.10;0.10;;;;;;;;;;5113462;27;20069;-47
2023/06/14 13:16:51;;;;;;;0.10;0.10;;;;;;;;;;5111777;28;20857;-47
2023/06/14 13:19:17;;;;;;;0.10;0.10;;;;;;;;;;5104025;27;20661;-54
2023/06/14 13:21:42;;;;;;;0.10;0.10;;;;;;;;;;5114823;27;20077;-47
2023/06/14 13:24:08;;;;;;;0.10;0.10;;;;;;;;;;5111801;28;20134;-47
2023/06/14 13:26:34;;;;;;;0.10;0.10;;;;;;;;;;5113619;28;20451;-60
2023/06/14 13:28:59;;;;;;;0.10;0.10;;;;;;;;;;5113607;28;20051;-61
2023/06/14 13:31:25;;;;;;;0.10;0.10;;;;;;;;;;5113602;27;20038;-45
2023/06/14 13:33:51;;;;;;;0.10;0.10;;;;;;;;;;5112226;28;20085;-47
2023/06/14 13:36:16;;;;;;;0.10;0.10;;;;;;;;;;5112009;28;20047;-49
2023/06/14 13:38:42;;;;;;;0.10;0.10;;;;;;;;;;5090824;28;20247;-48
2023/06/14 13:41:07;;;;;;;0.10;0.10;;;;;;;;;;5111493;27;20043;-47
2023/06/14 13:43:33;;;;;;;0.10;0.10;;;;;;;;;;5106806;28;20047;-45
2023/06/14 13:45:58;;;;;;;0.10;0.10;;;;;;;;;;5112867;28;20051;-45
2023/06/14 13:48:24;;;;;;;0.10;0.10;;;;;;;;;;5113397;28;20396;-45
2023/06/14 13:50:50;;;;;;;0.10;0.10;;;;;;;;;;5111478;27;20082;-45
2023/06/14 13:53:15;;;;;;;0.15;0.15;;;;;;;;;;5087806;28;20495;-45
2023/06/14 13:55:41;;;;;;;0.10;0.10;;;;;;;;;;5100987;28;20078;-60
2023/06/14 13:58:06;;;;;;;0.10;0.10;;;;;;;;;;5113963;27;20107;-46
2023/06/14 14:00:32;;;;;;;0.10;0.10;;;;;;;;;;5119622;27;20331;-49
2023/06/14 14:02:59;;;;;;;0.10;0.10;;;;;;;;;;5107699;28;20392;-47
2023/06/14 14:05:29;;;;;;;0.10;0.10;;;;;;;;;;5113487;28;20474;-46
2023/06/14 14:07:55;;;;;;;0.10;0.10;;;;;;;;;;5111796;28;20494;-47
2023/06/14 14:10:20;;;;;;;0.10;0.10;;;;;;;;;;5113907;27;20047;-49
2023/06/14 14:12:46;;;;;;;0.10;0.10;;;;;;;;;;5107738;27;20039;-45
2023/06/14 14:15:15;;;;;;;0.17;0.17;;;;;;;;;;5105891;27;20054;-48
2023/06/14 14:17:41;;;;;;;0.10;0.10;;;;;;;;;;5113954;28;20055;-48
2023/06/14 14:20:07;;;;;;;0.10;0.10;;;;;;;;;;5094913;28;20504;-46
2023/06/14 14:22:32;;;;;;;0.10;0.10;;;;;;;;;;5114196;28;20134;-48
2023/06/14 14:24:58;;;;;;;0.10;0.10;;;;;;;;;;5113725;28;20202;-46
2023/06/14 14:27:23;;;;;;;0.10;0.10;;;;;;;;;;5113322;28;20080;-46
2023/06/14 14:29:49;;;;;;;0.10;0.10;;;;;;;;;;5110684;27;20054;-46
2023/06/14 14:32:14;;;;;;;0.10;0.10;;;;;;;;;;5110125;27;20051;-45
2023/06/14 14:34:40;;;;;;;0.10;0.10;;;;;;;;;;5111446;28;20055;-46
2023/06/14 14:37:06;;;;;;;0.10;0.10;;;;;;;;;;5112872;28;20075;-46
2023/06/14 14:39:31;;;;;;;0.10;0.10;;;;;;;;;;5111340;27;20466;-47
2023/06/14 14:41:57;;;;;;;0.10;0.10;;;;;;;;;;5133462;27;20522;-49
2023/06/14 14:44:22;;;;;;;0.10;0.10;;;;;;;;;;5119927;27;20070;-46
2023/06/14 14:46:48;;;;;;;0.10;0.10;;;;;;;;;;5109566;28;20465;-48